sensor_id;sensor_type;location;lat;lon;timestamp;temperature;humidity
13521;DHT22;6832;51.186;3.236;2022-07-17T00:01:39;21.30;51.10
13521;DHT22;6832;51.186;3.236;2022-07-17T00:04:06;21.20;51.00
13521;DHT22;6832;51.186;3.236;2022-07-17T00:06:36;21.20;51.20
13521;DHT22;6832;51.186;3.236;2022-07-17T00:09:04;21.20;51.40
13521;DHT22;6832;51.186;3.236;2022-07-17T00:11:33;21.20;51.50
13521;DHT22;6832;51.186;3.236;2022-07-17T00:14:01;21.10;51.60
13521;DHT22;6832;51.186;3.236;2022-07-17T00:16:29;21.10;51.50
13521;DHT22;6832;51.186;3.236;2022-07-17T00:18:57;21.10;51.70
13521;DHT22;6832;51.186;3.236;2022-07-17T00:21:25;21.10;51.70
13521;DHT22;6832;51.186;3.236;2022-07-17T00:23:52;21.00;51.80
13521;DHT22;6832;51.186;3.236;2022-07-17T00:26:20;21.00;51.70
13521;DHT22;6832;51.186;3.236;2022-07-17T00:28:47;21.00;52.00
13521;DHT22;6832;51.186;3.236;2022-07-17T00:31:14;20.90;51.90
13521;DHT22;6832;51.186;3.236;2022-07-17T00:33:43;20.90;52.00
13521;DHT22;6832;51.186;3.236;2022-07-17T00:36:11;20.90;52.90
13521;DHT22;6832;51.186;3.236;2022-07-17T00:38:38;20.90;52.20
13521;DHT22;6832;51.186;3.236;2022-07-17T00:41:05;20.80;52.20
13521;DHT22;6832;51.186;3.236;2022-07-17T00:43:39;20.80;52.40
13521;DHT22;6832;51.186;3.236;2022-07-17T00:46:06;20.70;52.60
13521;DHT22;6832;51.186;3.236;2022-07-17T00:48:34;20.70;52.40
13521;DHT22;6832;51.186;3.236;2022-07-17T00:51:04;20.60;52.40
13521;DHT22;6832;51.186;3.236;2022-07-17T00:53:31;20.60;52.70
13521;DHT22;6832;51.186;3.236;2022-07-17T00:56:01;20.60;52.70
13521;DHT22;6832;51.186;3.236;2022-07-17T00:58:29;20.60;52.90
13521;DHT22;6832;51.186;3.236;2022-07-17T01:00:57;20.60;52.80
13521;DHT22;6832;51.186;3.236;2022-07-17T01:03:25;20.50;52.70
13521;DHT22;6832;51.186;3.236;2022-07-17T01:05:52;20.50;52.40
13521;DHT22;6832;51.186;3.236;2022-07-17T01:08:21;20.40;52.30
13521;DHT22;6832;51.186;3.236;2022-07-17T01:10:58;20.40;52.40
13521;DHT22;6832;51.186;3.236;2022-07-17T01:13:45;20.40;53.00
13521;DHT22;6832;51.186;3.236;2022-07-17T01:16:12;20.40;53.00
13521;DHT22;6832;51.186;3.236;2022-07-17T01:18:44;20.40;52.80
13521;DHT22;6832;51.186;3.236;2022-07-17T01:21:14;20.40;52.60
13521;DHT22;6832;51.186;3.236;2022-07-17T01:23:43;20.30;52.50
13521;DHT22;6832;51.186;3.236;2022-07-17T01:26:14;20.30;52.90
13521;DHT22;6832;51.186;3.236;2022-07-17T01:28:42;20.30;53.20
13521;DHT22;6832;51.186;3.236;2022-07-17T01:31:09;20.20;53.10
13521;DHT22;6832;51.186;3.236;2022-07-17T01:33:39;20.20;53.20
13521;DHT22;6832;51.186;3.236;2022-07-17T01:36:06;20.20;53.30
13521;DHT22;6832;51.186;3.236;2022-07-17T01:38:37;20.10;53.30
13521;DHT22;6832;51.186;3.236;2022-07-17T01:41:26;20.10;53.50
13521;DHT22;6832;51.186;3.236;2022-07-17T01:43:53;20.00;53.50
13521;DHT22;6832;51.186;3.236;2022-07-17T01:46:20;20.00;52.90
13521;DHT22;6832;51.186;3.236;2022-07-17T01:48:48;20.00;53.30
13521;DHT22;6832;51.186;3.236;2022-07-17T01:51:16;20.00;53.70
13521;DHT22;6832;51.186;3.236;2022-07-17T01:53:45;19.90;53.80
13521;DHT22;6832;51.186;3.236;2022-07-17T01:56:18;19.90;53.80
13521;DHT22;6832;51.186;3.236;2022-07-17T01:58:47;19.90;54.10
13521;DHT22;6832;51.186;3.236;2022-07-17T02:01:14;19.80;53.50
13521;DHT22;6832;51.186;3.236;2022-07-17T02:03:53;19.80;53.70
13521;DHT22;6832;51.186;3.236;2022-07-17T02:06:25;19.80;54.40
13521;DHT22;6832;51.186;3.236;2022-07-17T02:08:54;19.70;54.10
13521;DHT22;6832;51.186;3.236;2022-07-17T02:11:21;19.70;54.10
13521;DHT22;6832;51.186;3.236;2022-07-17T02:13:48;19.70;54.10
13521;DHT22;6832;51.186;3.236;2022-07-17T02:16:15;19.60;54.10
13521;DHT22;6832;51.186;3.236;2022-07-17T02:18:43;19.60;54.30
13521;DHT22;6832;51.186;3.236;2022-07-17T02:21:10;19.50;54.40
13521;DHT22;6832;51.186;3.236;2022-07-17T02:23:37;19.50;54.50
13521;DHT22;6832;51.186;3.236;2022-07-17T02:26:08;19.40;54.60
13521;DHT22;6832;51.186;3.236;2022-07-17T02:28:39;19.40;55.10
13521;DHT22;6832;51.186;3.236;2022-07-17T02:31:09;19.40;54.80
13521;DHT22;6832;51.186;3.236;2022-07-17T02:33:36;19.30;54.80
13521;DHT22;6832;51.186;3.236;2022-07-17T02:36:13;19.30;54.90
13521;DHT22;6832;51.186;3.236;2022-07-17T02:38:42;19.30;55.20
13521;DHT22;6832;51.186;3.236;2022-07-17T02:41:11;19.20;55.00
13521;DHT22;6832;51.186;3.236;2022-07-17T02:43:39;19.20;55.10
13521;DHT22;6832;51.186;3.236;2022-07-17T02:46:09;19.10;55.00
13521;DHT22;6832;51.186;3.236;2022-07-17T02:48:37;19.10;55.00
13521;DHT22;6832;51.186;3.236;2022-07-17T02:51:04;19.10;55.20
13521;DHT22;6832;51.186;3.236;2022-07-17T02:53:37;19.10;55.30
13521;DHT22;6832;51.186;3.236;2022-07-17T02:56:05;19.00;55.30
13521;DHT22;6832;51.186;3.236;2022-07-17T02:58:34;19.00;55.30
13521;DHT22;6832;51.186;3.236;2022-07-17T03:01:16;19.00;55.70
13521;DHT22;6832;51.186;3.236;2022-07-17T03:03:43;18.90;55.90
13521;DHT22;6832;51.186;3.236;2022-07-17T03:06:10;19.00;55.60
13521;DHT22;6832;51.186;3.236;2022-07-17T03:08:37;18.90;55.70
13521;DHT22;6832;51.186;3.236;2022-07-17T03:11:04;18.90;55.80
13521;DHT22;6832;51.186;3.236;2022-07-17T03:13:31;18.80;55.80
13521;DHT22;6832;51.186;3.236;2022-07-17T03:16:00;18.90;55.90
13521;DHT22;6832;51.186;3.236;2022-07-17T03:18:28;18.80;55.80
13521;DHT22;6832;51.186;3.236;2022-07-17T03:20:55;18.80;55.80
13521;DHT22;6832;51.186;3.236;2022-07-17T03:23:22;18.80;56.00
13521;DHT22;6832;51.186;3.236;2022-07-17T03:25:49;18.80;56.00
13521;DHT22;6832;51.186;3.236;2022-07-17T03:28:18;18.80;56.00
13521;DHT22;6832;51.186;3.236;2022-07-17T03:30:48;18.70;56.00
13521;DHT22;6832;51.186;3.236;2022-07-17T03:33:16;18.70;56.10
13521;DHT22;6832;51.186;3.236;2022-07-17T03:35:46;18.70;56.30
13521;DHT22;6832;51.186;3.236;2022-07-17T03:38:13;18.70;56.20
13521;DHT22;6832;51.186;3.236;2022-07-17T03:40:40;18.70;56.30
13521;DHT22;6832;51.186;3.236;2022-07-17T03:43:13;18.60;56.20
13521;DHT22;6832;51.186;3.236;2022-07-17T03:45:41;18.60;56.70
13521;DHT22;6832;51.186;3.236;2022-07-17T03:48:09;18.60;56.40
13521;DHT22;6832;51.186;3.236;2022-07-17T03:50:38;18.60;56.40
13521;DHT22;6832;51.186;3.236;2022-07-17T03:53:06;18.50;56.60
13521;DHT22;6832;51.186;3.236;2022-07-17T03:55:33;18.50;56.40
13521;DHT22;6832;51.186;3.236;2022-07-17T03:58:00;18.50;56.50
13521;DHT22;6832;51.186;3.236;2022-07-17T04:00:27;18.50;56.60
13521;DHT22;6832;51.186;3.236;2022-07-17T04:02:54;18.40;56.50
13521;DHT22;6832;51.186;3.236;2022-07-17T04:05:22;18.40;56.50
13521;DHT22;6832;51.186;3.236;2022-07-17T04:07:52;18.40;56.50
13521;DHT22;6832;51.186;3.236;2022-07-17T04:10:19;18.40;56.60
13521;DHT22;6832;51.186;3.236;2022-07-17T04:12:46;18.30;57.10
13521;DHT22;6832;51.186;3.236;2022-07-17T04:15:15;18.30;56.60
13521;DHT22;6832;51.186;3.236;2022-07-17T04:18:08;18.30;56.80
13521;DHT22;6832;51.186;3.236;2022-07-17T04:20:35;18.30;56.90
13521;DHT22;6832;51.186;3.236;2022-07-17T04:23:04;18.30;56.90
13521;DHT22;6832;51.186;3.236;2022-07-17T04:25:31;18.30;57.20
13521;DHT22;6832;51.186;3.236;2022-07-17T04:28:00;18.20;57.10
13521;DHT22;6832;51.186;3.236;2022-07-17T04:30:32;18.20;57.30
13521;DHT22;6832;51.186;3.236;2022-07-17T04:32:59;18.20;57.40
13521;DHT22;6832;51.186;3.236;2022-07-17T04:35:26;18.20;57.40
13521;DHT22;6832;51.186;3.236;2022-07-17T04:37:53;18.10;57.40
13521;DHT22;6832;51.186;3.236;2022-07-17T04:40:23;18.10;57.60
13521;DHT22;6832;51.186;3.236;2022-07-17T04:42:50;18.20;58.00
13521;DHT22;6832;51.186;3.236;2022-07-17T04:45:18;18.10;57.80
13521;DHT22;6832;51.186;3.236;2022-07-17T04:47:48;18.10;57.90
13521;DHT22;6832;51.186;3.236;2022-07-17T04:50:15;18.10;58.00
13521;DHT22;6832;51.186;3.236;2022-07-17T04:52:43;18.20;58.10
13521;DHT22;6832;51.186;3.236;2022-07-17T04:55:12;18.20;58.20
13521;DHT22;6832;51.186;3.236;2022-07-17T04:57:40;18.20;58.30
13521;DHT22;6832;51.186;3.236;2022-07-17T05:00:16;18.20;58.40
13521;DHT22;6832;51.186;3.236;2022-07-17T05:02:43;18.20;58.40
13521;DHT22;6832;51.186;3.236;2022-07-17T05:05:12;18.20;58.50
13521;DHT22;6832;51.186;3.236;2022-07-17T05:07:39;18.20;58.50
13521;DHT22;6832;51.186;3.236;2022-07-17T05:10:07;18.30;58.60
13521;DHT22;6832;51.186;3.236;2022-07-17T05:12:42;18.30;58.60
13521;DHT22;6832;51.186;3.236;2022-07-17T05:15:10;18.30;59.10
13521;DHT22;6832;51.186;3.236;2022-07-17T05:17:39;18.30;58.80
13521;DHT22;6832;51.186;3.236;2022-07-17T05:20:07;18.30;58.80
13521;DHT22;6832;51.186;3.236;2022-07-17T05:22:34;18.40;58.80
13521;DHT22;6832;51.186;3.236;2022-07-17T05:25:02;18.40;58.70
13521;DHT22;6832;51.186;3.236;2022-07-17T05:27:38;18.40;58.50
13521;DHT22;6832;51.186;3.236;2022-07-17T05:30:09;18.50;58.80
13521;DHT22;6832;51.186;3.236;2022-07-17T05:32:36;18.50;58.80
13521;DHT22;6832;51.186;3.236;2022-07-17T05:35:05;18.60;58.40
13521;DHT22;6832;51.186;3.236;2022-07-17T05:37:32;18.60;58.30
13521;DHT22;6832;51.186;3.236;2022-07-17T05:40:03;18.70;58.40
13521;DHT22;6832;51.186;3.236;2022-07-17T05:42:30;18.70;58.40
13521;DHT22;6832;51.186;3.236;2022-07-17T05:45:02;18.70;58.40
13521;DHT22;6832;51.186;3.236;2022-07-17T05:47:31;18.80;58.50
13521;DHT22;6832;51.186;3.236;2022-07-17T05:49:58;18.80;58.50
13521;DHT22;6832;51.186;3.236;2022-07-17T05:52:26;18.90;58.50
13521;DHT22;6832;51.186;3.236;2022-07-17T05:54:53;18.90;58.60
13521;DHT22;6832;51.186;3.236;2022-07-17T05:57:24;18.90;58.60
13521;DHT22;6832;51.186;3.236;2022-07-17T05:59:51;19.00;58.80
13521;DHT22;6832;51.186;3.236;2022-07-17T06:02:18;19.00;58.70
13521;DHT22;6832;51.186;3.236;2022-07-17T06:04:46;19.00;58.70
13521;DHT22;6832;51.186;3.236;2022-07-17T06:07:17;19.10;58.80
13521;DHT22;6832;51.186;3.236;2022-07-17T06:09:44;19.10;58.90
13521;DHT22;6832;51.186;3.236;2022-07-17T06:12:11;19.10;58.90
13521;DHT22;6832;51.186;3.236;2022-07-17T06:14:38;19.10;58.70
13521;DHT22;6832;51.186;3.236;2022-07-17T06:17:05;19.20;58.70
13521;DHT22;6832;51.186;3.236;2022-07-17T06:19:33;19.30;58.70
13521;DHT22;6832;51.186;3.236;2022-07-17T06:22:16;19.30;58.70
13521;DHT22;6832;51.186;3.236;2022-07-17T06:24:46;19.30;59.30
13521;DHT22;6832;51.186;3.236;2022-07-17T06:27:13;19.40;58.80
13521;DHT22;6832;51.186;3.236;2022-07-17T06:29:43;19.40;58.60
13521;DHT22;6832;51.186;3.236;2022-07-17T06:32:11;19.50;58.80
13521;DHT22;6832;51.186;3.236;2022-07-17T06:34:41;19.50;58.80
13521;DHT22;6832;51.186;3.236;2022-07-17T06:37:08;19.50;58.70
13521;DHT22;6832;51.186;3.236;2022-07-17T06:39:37;19.50;58.50
13521;DHT22;6832;51.186;3.236;2022-07-17T06:42:04;19.60;58.80
13521;DHT22;6832;51.186;3.236;2022-07-17T06:44:36;19.60;58.80
13521;DHT22;6832;51.186;3.236;2022-07-17T06:47:15;19.60;58.80
13521;DHT22;6832;51.186;3.236;2022-07-17T06:49:52;19.70;59.00
13521;DHT22;6832;51.186;3.236;2022-07-17T06:52:21;19.80;59.00
13521;DHT22;6832;51.186;3.236;2022-07-17T06:54:50;19.80;59.00
13521;DHT22;6832;51.186;3.236;2022-07-17T06:57:17;19.80;58.80
13521;DHT22;6832;51.186;3.236;2022-07-17T06:59:44;19.90;58.60
13521;DHT22;6832;51.186;3.236;2022-07-17T07:02:12;20.00;59.30
13521;DHT22;6832;51.186;3.236;2022-07-17T07:04:54;20.00;58.60
13521;DHT22;6832;51.186;3.236;2022-07-17T07:07:21;20.10;58.60
13521;DHT22;6832;51.186;3.236;2022-07-17T07:09:50;20.20;58.70
13521;DHT22;6832;51.186;3.236;2022-07-17T07:12:18;20.30;58.80
13521;DHT22;6832;51.186;3.236;2022-07-17T07:14:45;20.40;58.70
13521;DHT22;6832;51.186;3.236;2022-07-17T07:17:12;20.40;58.60
13521;DHT22;6832;51.186;3.236;2022-07-17T07:19:39;20.50;58.60
13521;DHT22;6832;51.186;3.236;2022-07-17T07:22:06;20.60;58.50
13521;DHT22;6832;51.186;3.236;2022-07-17T07:24:36;20.60;58.30
13521;DHT22;6832;51.186;3.236;2022-07-17T07:27:05;20.80;58.50
13521;DHT22;6832;51.186;3.236;2022-07-17T07:29:32;20.80;58.40
13521;DHT22;6832;51.186;3.236;2022-07-17T07:31:59;20.90;58.30
13521;DHT22;6832;51.186;3.236;2022-07-17T07:34:28;21.00;58.10
13521;DHT22;6832;51.186;3.236;2022-07-17T07:36:57;21.10;58.00
13521;DHT22;6832;51.186;3.236;2022-07-17T07:39:26;21.20;58.00
13521;DHT22;6832;51.186;3.236;2022-07-17T07:41:53;21.20;57.90
13521;DHT22;6832;51.186;3.236;2022-07-17T07:44:22;21.40;58.00
13521;DHT22;6832;51.186;3.236;2022-07-17T07:46:49;21.50;58.00
13521;DHT22;6832;51.186;3.236;2022-07-17T07:49:17;21.60;58.00
13521;DHT22;6832;51.186;3.236;2022-07-17T07:51:50;21.60;57.80
13521;DHT22;6832;51.186;3.236;2022-07-17T07:54:17;21.70;57.50
13521;DHT22;6832;51.186;3.236;2022-07-17T07:56:44;21.80;57.30
13521;DHT22;6832;51.186;3.236;2022-07-17T07:59:11;21.90;57.30
13521;DHT22;6832;51.186;3.236;2022-07-17T08:01:48;22.00;57.20
13521;DHT22;6832;51.186;3.236;2022-07-17T08:04:15;22.10;56.70
13521;DHT22;6832;51.186;3.236;2022-07-17T08:06:43;22.20;56.90
13521;DHT22;6832;51.186;3.236;2022-07-17T08:09:10;22.30;57.00
13521;DHT22;6832;51.186;3.236;2022-07-17T08:11:37;22.40;56.80
13521;DHT22;6832;51.186;3.236;2022-07-17T08:17:06;22.60;56.00
13521;DHT22;6832;51.186;3.236;2022-07-17T08:19:33;22.70;56.30
13521;DHT22;6832;51.186;3.236;2022-07-17T08:22:03;22.80;56.10
13521;DHT22;6832;51.186;3.236;2022-07-17T08:24:30;22.90;56.00
13521;DHT22;6832;51.186;3.236;2022-07-17T08:26:58;23.00;55.90
13521;DHT22;6832;51.186;3.236;2022-07-17T08:29:25;23.10;55.90
13521;DHT22;6832;51.186;3.236;2022-07-17T08:31:54;23.20;56.20
13521;DHT22;6832;51.186;3.236;2022-07-17T08:34:24;23.30;55.80
13521;DHT22;6832;51.186;3.236;2022-07-17T08:36:52;23.40;55.50
13521;DHT22;6832;51.186;3.236;2022-07-17T08:39:22;23.50;55.70
13521;DHT22;6832;51.186;3.236;2022-07-17T08:41:49;23.60;55.50
13521;DHT22;6832;51.186;3.236;2022-07-17T08:44:17;23.70;55.60
13521;DHT22;6832;51.186;3.236;2022-07-17T08:46:44;23.80;55.70
13521;DHT22;6832;51.186;3.236;2022-07-17T08:49:11;23.90;55.60
13521;DHT22;6832;51.186;3.236;2022-07-17T08:51:43;24.10;55.60
13521;DHT22;6832;51.186;3.236;2022-07-17T08:54:11;24.20;54.90
13521;DHT22;6832;51.186;3.236;2022-07-17T08:56:38;24.40;55.40
13521;DHT22;6832;51.186;3.236;2022-07-17T08:59:05;24.60;55.20
13521;DHT22;6832;51.186;3.236;2022-07-17T09:01:34;24.80;55.00
13521;DHT22;6832;51.186;3.236;2022-07-17T09:04:04;25.00;54.80
13521;DHT22;6832;51.186;3.236;2022-07-17T09:06:35;25.20;54.40
13521;DHT22;6832;51.186;3.236;2022-07-17T09:09:07;25.40;54.30
13521;DHT22;6832;51.186;3.236;2022-07-17T09:11:43;25.60;53.90
13521;DHT22;6832;51.186;3.236;2022-07-17T09:14:20;25.90;53.30
13521;DHT22;6832;51.186;3.236;2022-07-17T09:16:53;26.20;52.80
13521;DHT22;6832;51.186;3.236;2022-07-17T09:19:25;26.40;52.80
13521;DHT22;6832;51.186;3.236;2022-07-17T09:22:04;26.60;52.40
13521;DHT22;6832;51.186;3.236;2022-07-17T09:24:48;26.80;51.80
13521;DHT22;6832;51.186;3.236;2022-07-17T09:27:29;27.10;51.10
13521;DHT22;6832;51.186;3.236;2022-07-17T09:30:07;27.30;50.60
13521;DHT22;6832;51.186;3.236;2022-07-17T09:32:36;27.50;50.40
13521;DHT22;6832;51.186;3.236;2022-07-17T09:35:07;27.70;51.10
13521;DHT22;6832;51.186;3.236;2022-07-17T09:37:36;27.80;50.20
13521;DHT22;6832;51.186;3.236;2022-07-17T09:40:08;28.00;50.50
13521;DHT22;6832;51.186;3.236;2022-07-17T09:42:36;28.20;49.30
13521;DHT22;6832;51.186;3.236;2022-07-17T09:45:05;28.40;50.00
13521;DHT22;6832;51.186;3.236;2022-07-17T09:47:35;28.50;48.80
13521;DHT22;6832;51.186;3.236;2022-07-17T09:50:07;28.60;48.70
13521;DHT22;6832;51.186;3.236;2022-07-17T09:52:36;28.80;49.20
13521;DHT22;6832;51.186;3.236;2022-07-17T09:55:05;28.90;49.00
13521;DHT22;6832;51.186;3.236;2022-07-17T09:57:43;29.00;48.40
13521;DHT22;6832;51.186;3.236;2022-07-17T10:00:16;29.20;48.00
13521;DHT22;6832;51.186;3.236;2022-07-17T10:02:45;29.30;48.20
13521;DHT22;6832;51.186;3.236;2022-07-17T10:05:14;29.40;47.70
13521;DHT22;6832;51.186;3.236;2022-07-17T10:07:42;29.50;47.20
13521;DHT22;6832;51.186;3.236;2022-07-17T10:10:12;29.60;47.50
13521;DHT22;6832;51.186;3.236;2022-07-17T10:12:43;29.60;46.90
13521;DHT22;6832;51.186;3.236;2022-07-17T10:15:11;29.80;46.70
13521;DHT22;6832;51.186;3.236;2022-07-17T10:17:40;29.80;46.70
13521;DHT22;6832;51.186;3.236;2022-07-17T10:20:09;29.90;46.40
13521;DHT22;6832;51.186;3.236;2022-07-17T10:22:41;30.10;46.40
13521;DHT22;6832;51.186;3.236;2022-07-17T10:25:12;30.20;45.50
13521;DHT22;6832;51.186;3.236;2022-07-17T10:27:47;30.30;45.40
13521;DHT22;6832;51.186;3.236;2022-07-17T10:30:20;30.40;44.70
13521;DHT22;6832;51.186;3.236;2022-07-17T10:32:55;30.50;44.30
13521;DHT22;6832;51.186;3.236;2022-07-17T10:35:24;30.60;43.90
13521;DHT22;6832;51.186;3.236;2022-07-17T10:37:58;30.70;44.10
13521;DHT22;6832;51.186;3.236;2022-07-17T10:40:36;30.80;43.70
13521;DHT22;6832;51.186;3.236;2022-07-17T10:43:05;30.90;44.00
13521;DHT22;6832;51.186;3.236;2022-07-17T10:45:33;31.00;43.30
13521;DHT22;6832;51.186;3.236;2022-07-17T10:48:03;31.10;43.30
13521;DHT22;6832;51.186;3.236;2022-07-17T10:50:33;31.20;42.20
13521;DHT22;6832;51.186;3.236;2022-07-17T10:53:04;31.30;42.60
13521;DHT22;6832;51.186;3.236;2022-07-17T10:55:33;31.30;42.10
13521;DHT22;6832;51.186;3.236;2022-07-17T10:58:03;31.40;41.80
13521;DHT22;6832;51.186;3.236;2022-07-17T11:00:30;31.40;41.70
13521;DHT22;6832;51.186;3.236;2022-07-17T11:03:08;31.40;42.20
13521;DHT22;6832;51.186;3.236;2022-07-17T11:05:35;31.40;40.80
13521;DHT22;6832;51.186;3.236;2022-07-17T11:08:03;31.50;41.90
13521;DHT22;6832;51.186;3.236;2022-07-17T11:10:37;31.50;41.70
13521;DHT22;6832;51.186;3.236;2022-07-17T11:13:10;31.60;41.20
13521;DHT22;6832;51.186;3.236;2022-07-17T11:15:42;31.60;41.00
13521;DHT22;6832;51.186;3.236;2022-07-17T11:18:14;31.60;41.90
13521;DHT22;6832;51.186;3.236;2022-07-17T11:20:53;31.70;40.80
13521;DHT22;6832;51.186;3.236;2022-07-17T11:23:22;31.80;39.90
13521;DHT22;6832;51.186;3.236;2022-07-17T11:25:57;31.90;41.20
13521;DHT22;6832;51.186;3.236;2022-07-17T11:28:31;32.00;40.10
13521;DHT22;6832;51.186;3.236;2022-07-17T11:30:59;32.10;40.00
13521;DHT22;6832;51.186;3.236;2022-07-17T11:33:29;32.10;40.60
13521;DHT22;6832;51.186;3.236;2022-07-17T11:35:57;32.20;40.50
13521;DHT22;6832;51.186;3.236;2022-07-17T11:38:36;32.40;40.50
13521;DHT22;6832;51.186;3.236;2022-07-17T11:41:04;32.40;39.00
13521;DHT22;6832;51.186;3.236;2022-07-17T11:43:40;32.50;39.70
13521;DHT22;6832;51.186;3.236;2022-07-17T11:46:12;32.60;38.90
13521;DHT22;6832;51.186;3.236;2022-07-17T11:48:41;32.70;39.30
13521;DHT22;6832;51.186;3.236;2022-07-17T11:51:08;32.80;39.20
13521;DHT22;6832;51.186;3.236;2022-07-17T11:53:36;32.80;38.40
13521;DHT22;6832;51.186;3.236;2022-07-17T11:56:05;32.90;38.30
13521;DHT22;6832;51.186;3.236;2022-07-17T11:58:43;33.00;38.60
13521;DHT22;6832;51.186;3.236;2022-07-17T12:01:11;33.10;38.20
13521;DHT22;6832;51.186;3.236;2022-07-17T12:03:39;33.10;38.70
13521;DHT22;6832;51.186;3.236;2022-07-17T12:06:06;33.20;38.40
13521;DHT22;6832;51.186;3.236;2022-07-17T12:08:34;33.20;37.80
13521;DHT22;6832;51.186;3.236;2022-07-17T12:11:05;33.30;37.60
13521;DHT22;6832;51.186;3.236;2022-07-17T12:13:42;33.40;37.00
13521;DHT22;6832;51.186;3.236;2022-07-17T12:16:27;33.50;36.50
13521;DHT22;6832;51.186;3.236;2022-07-17T12:19:06;33.60;36.00
13521;DHT22;6832;51.186;3.236;2022-07-17T12:21:52;33.60;36.30
13521;DHT22;6832;51.186;3.236;2022-07-17T12:24:25;33.70;35.90
13521;DHT22;6832;51.186;3.236;2022-07-17T12:26:54;33.80;36.70
13521;DHT22;6832;51.186;3.236;2022-07-17T12:29:23;33.90;36.50
13521;DHT22;6832;51.186;3.236;2022-07-17T12:32:01;33.90;36.20
13521;DHT22;6832;51.186;3.236;2022-07-17T12:34:28;33.90;35.60
13521;DHT22;6832;51.186;3.236;2022-07-17T12:36:55;34.00;36.40
13521;DHT22;6832;51.186;3.236;2022-07-17T12:39:22;34.00;36.10
13521;DHT22;6832;51.186;3.236;2022-07-17T12:41:49;34.10;35.90
13521;DHT22;6832;51.186;3.236;2022-07-17T12:44:18;34.20;36.10
13521;DHT22;6832;51.186;3.236;2022-07-17T12:46:47;34.20;35.60
13521;DHT22;6832;51.186;3.236;2022-07-17T12:49:16;34.30;35.10
13521;DHT22;6832;51.186;3.236;2022-07-17T12:51:45;34.40;35.00
13521;DHT22;6832;51.186;3.236;2022-07-17T12:54:13;34.50;33.70
13521;DHT22;6832;51.186;3.236;2022-07-17T12:56:40;34.50;34.30
13521;DHT22;6832;51.186;3.236;2022-07-17T12:59:07;34.50;34.10
13521;DHT22;6832;51.186;3.236;2022-07-17T13:01:34;34.60;34.00
13521;DHT22;6832;51.186;3.236;2022-07-17T13:04:03;34.60;33.70
13521;DHT22;6832;51.186;3.236;2022-07-17T13:06:30;34.60;33.50
13521;DHT22;6832;51.186;3.236;2022-07-17T13:08:58;34.70;33.60
13521;DHT22;6832;51.186;3.236;2022-07-17T13:11:25;34.70;33.40
13521;DHT22;6832;51.186;3.236;2022-07-17T13:13:53;34.80;33.30
13521;DHT22;6832;51.186;3.236;2022-07-17T13:16:20;34.90;33.30
13521;DHT22;6832;51.186;3.236;2022-07-17T13:18:47;34.90;33.20
13521;DHT22;6832;51.186;3.236;2022-07-17T13:21:21;35.00;33.70
13521;DHT22;6832;51.186;3.236;2022-07-17T13:23:48;35.10;32.50
13521;DHT22;6832;51.186;3.236;2022-07-17T13:26:15;35.10;33.10
13521;DHT22;6832;51.186;3.236;2022-07-17T13:28:43;35.20;33.30
13521;DHT22;6832;51.186;3.236;2022-07-17T13:31:10;35.20;33.20
13521;DHT22;6832;51.186;3.236;2022-07-17T13:33:37;35.30;33.10
13521;DHT22;6832;51.186;3.236;2022-07-17T13:36:05;35.30;32.90
13521;DHT22;6832;51.186;3.236;2022-07-17T13:38:51;35.30;32.80
13521;DHT22;6832;51.186;3.236;2022-07-17T13:41:18;35.40;32.80
13521;DHT22;6832;51.186;3.236;2022-07-17T13:43:45;35.50;33.30
13521;DHT22;6832;51.186;3.236;2022-07-17T13:46:15;35.60;32.60
13521;DHT22;6832;51.186;3.236;2022-07-17T13:48:42;35.60;32.40
13521;DHT22;6832;51.186;3.236;2022-07-17T13:51:09;35.70;32.30
13521;DHT22;6832;51.186;3.236;2022-07-17T13:53:38;35.70;31.70
13521;DHT22;6832;51.186;3.236;2022-07-17T13:56:07;35.80;31.90
13521;DHT22;6832;51.186;3.236;2022-07-17T13:58:34;35.90;31.70
13521;DHT22;6832;51.186;3.236;2022-07-17T14:01:20;36.00;31.80
13521;DHT22;6832;51.186;3.236;2022-07-17T14:03:53;36.00;31.40
13521;DHT22;6832;51.186;3.236;2022-07-17T14:06:21;36.10;31.20
13521;DHT22;6832;51.186;3.236;2022-07-17T14:08:48;36.10;30.80
13521;DHT22;6832;51.186;3.236;2022-07-17T14:11:17;36.20;31.50
13521;DHT22;6832;51.186;3.236;2022-07-17T14:13:44;36.20;31.40
13521;DHT22;6832;51.186;3.236;2022-07-17T14:16:11;36.30;31.50
13521;DHT22;6832;51.186;3.236;2022-07-17T14:18:40;36.30;31.60
13521;DHT22;6832;51.186;3.236;2022-07-17T14:21:23;36.40;31.20
13521;DHT22;6832;51.186;3.236;2022-07-17T14:23:51;36.50;31.20
13521;DHT22;6832;51.186;3.236;2022-07-17T14:26:23;36.50;31.10
13521;DHT22;6832;51.186;3.236;2022-07-17T14:28:50;36.50;30.90
13521;DHT22;6832;51.186;3.236;2022-07-17T14:31:18;36.50;30.90
13521;DHT22;6832;51.186;3.236;2022-07-17T14:33:45;36.60;31.00
13521;DHT22;6832;51.186;3.236;2022-07-17T14:36:13;36.50;31.10
13521;DHT22;6832;51.186;3.236;2022-07-17T14:38:43;36.60;31.00
13521;DHT22;6832;51.186;3.236;2022-07-17T14:41:25;36.60;31.20
13521;DHT22;6832;51.186;3.236;2022-07-17T14:43:52;36.60;30.80
13521;DHT22;6832;51.186;3.236;2022-07-17T14:46:19;36.60;31.10
13521;DHT22;6832;51.186;3.236;2022-07-17T14:48:47;36.60;31.20
13521;DHT22;6832;51.186;3.236;2022-07-17T14:51:27;36.60;31.20
13521;DHT22;6832;51.186;3.236;2022-07-17T14:53:55;36.60;31.10
13521;DHT22;6832;51.186;3.236;2022-07-17T14:56:25;36.70;31.20
13521;DHT22;6832;51.186;3.236;2022-07-17T14:58:52;36.70;30.70
13521;DHT22;6832;51.186;3.236;2022-07-17T15:01:50;36.70;30.40
13521;DHT22;6832;51.186;3.236;2022-07-17T15:04:18;36.70;29.90
13521;DHT22;6832;51.186;3.236;2022-07-17T15:06:47;36.70;30.40
13521;DHT22;6832;51.186;3.236;2022-07-17T15:09:14;36.70;30.30
13521;DHT22;6832;51.186;3.236;2022-07-17T15:11:43;36.70;30.20
13521;DHT22;6832;51.186;3.236;2022-07-17T15:14:10;36.70;30.20
13521;DHT22;6832;51.186;3.236;2022-07-17T15:16:37;36.60;30.10
13521;DHT22;6832;51.186;3.236;2022-07-17T15:19:04;36.70;30.20
13521;DHT22;6832;51.186;3.236;2022-07-17T15:21:31;36.60;30.10
13521;DHT22;6832;51.186;3.236;2022-07-17T15:23:58;36.60;30.10
13521;DHT22;6832;51.186;3.236;2022-07-17T15:26:25;36.60;30.00
13521;DHT22;6832;51.186;3.236;2022-07-17T15:28:54;36.50;30.00
13521;DHT22;6832;51.186;3.236;2022-07-17T15:31:21;36.50;29.90
13521;DHT22;6832;51.186;3.236;2022-07-17T15:33:50;36.40;29.80
13521;DHT22;6832;51.186;3.236;2022-07-17T15:36:17;36.40;29.80
13521;DHT22;6832;51.186;3.236;2022-07-17T15:39:05;36.40;29.70
13521;DHT22;6832;51.186;3.236;2022-07-17T15:41:33;36.30;29.60
13521;DHT22;6832;51.186;3.236;2022-07-17T15:44:03;36.30;30.00
13521;DHT22;6832;51.186;3.236;2022-07-17T15:46:31;36.30;29.90
13521;DHT22;6832;51.186;3.236;2022-07-17T15:48:58;36.30;29.70
13521;DHT22;6832;51.186;3.236;2022-07-17T15:51:25;36.30;29.70
13521;DHT22;6832;51.186;3.236;2022-07-17T15:53:53;36.30;29.60
13521;DHT22;6832;51.186;3.236;2022-07-17T15:56:21;36.30;29.80
13521;DHT22;6832;51.186;3.236;2022-07-17T15:58:49;36.30;29.60
13521;DHT22;6832;51.186;3.236;2022-07-17T16:01:17;36.30;29.50
13521;DHT22;6832;51.186;3.236;2022-07-17T16:03:44;36.30;29.50